Time;durP1;ratioP1;P1;durP2;ratioP2;P2;SDS_P1;SDS_P2;PMS_P1;PMS_P2;Temp;Humidity;BMP_temperature;BMP_pressure;BME280_temperature;BME280_humidity;BME280_pressure;Samples;Min_cycle;Max_cycle;Signal;HPM_P1;HPM_P2
2023/08/27 00:00:47;;;;;;;2.15;1.95;;;;;;;31.81;45.26;98270.28;2083965;28;21526;-50
2023/08/27 00:01:47;;;;;;;1.98;1.85;;;;;;;31.81;45.11;98270.28;2087654;28;20075;-50
2023/08/27 00:02:49;;;;;;;2.30;2.10;;;;;;;31.80;45.26;98274.13;2083021;28;20761;-53
2023/08/27 00:03:50;;;;;;;2.40;2.22;;;;;;;31.80;45.30;98273.34;2081430;28;20553;-50
2023/08/27 00:04:52;;;;;;;2.50;2.30;;;;;;;31.80;45.44;98268.66;2082992;28;20049;-53
2023/08/27 00:05:53;;;;;;;2.90;2.70;;;;;;;31.80;45.64;98268.66;2081403;28;20536;-53
2023/08/27 00:06:55;;;;;;;2.90;2.70;;;;;;;31.80;45.72;98273.34;2072059;28;20609;-53
2023/08/27 00:07:57;;;;;;;2.17;2.08;;;;;;;31.80;45.64;98273.34;2075389;28;20401;-51
2023/08/27 00:08:58;;;;;;;3.05;2.83;;;;;;;31.79;45.33;98267.03;2074550;28;20583;-51
2023/08/27 00:09:59;;;;;;;2.70;2.50;;;;;;;31.79;45.56;98267.03;2080596;28;20055;-49
2023/08/27 00:11:04;;;;;;;2.85;2.65;;;;;;;31.80;45.52;98270.59;2079331;28;20053;-53
2023/08/27 00:12:05;;;;;;;2.55;2.35;;;;;;;31.79;45.44;98269.78;2075663;28;20037;-53
2023/08/27 00:13:06;;;;;;;2.47;2.28;;;;;;;31.79;45.38;98266.22;2077209;28;20156;-53
2023/08/27 00:14:07;;;;;;;2.33;2.17;;;;;;;31.79;45.58;98261.56;2079234;28;20551;-54
2023/08/27 00:15:10;;;;;;;3.13;2.88;;;;;;;31.78;45.31;98262.66;2073916;28;20050;-50
2023/08/27 00:16:10;;;;;;;2.67;2.47;;;;;;;31.78;45.88;98259.91;2074767;28;20052;-51
2023/08/27 00:17:13;;;;;;;2.72;2.20;;;;;;;31.79;45.22;98264.28;2072678;28;20132;-51
2023/08/27 00:18:14;;;;;;;2.90;2.63;;;;;;;31.80;45.15;98259.63;2076367;28;20604;-54
2023/08/27 00:19:16;;;;;;;2.15;2.05;;;;;;;31.78;45.33;98259.91;2074859;28;20053;-52
2023/08/27 00:20:17;;;;;;;2.50;2.30;;;;;;;31.77;45.47;98250.06;2074712;28;20664;-51
2023/08/27 00:21:18;;;;;;;3.40;3.00;;;;;;;31.78;45.41;98254.41;2074384;28;20052;-54
2023/08/27 00:22:21;;;;;;;2.60;2.40;;;;;;;31.79;45.18;98249.78;2074414;28;20060;-51
2023/08/27 00:23:22;;;;;;;2.00;1.77;;;;;;;31.78;45.46;98251.69;2073896;28;20073;-53
2023/08/27 00:24:24;;;;;;;2.80;2.60;;;;;;;31.78;45.39;98248.13;2076273;28;20403;-51
2023/08/27 00:25:25;;;;;;;2.90;2.70;;;;;;;31.77;45.60;98246.50;2074072;28;20057;-52
2023/08/27 00:26:25;;;;;;;2.63;2.40;;;;;;;31.78;45.38;98248.13;2074855;28;20053;-51
2023/08/27 00:27:27;;;;;;;3.50;3.10;;;;;;;31.77;45.17;98250.06;2073648;28;20037;-53
2023/08/27 00:28:28;;;;;;;2.90;2.70;;;;;;;31.77;45.65;98241.03;2075021;28;20046;-53
2023/08/27 00:29:30;;;;;;;2.33;2.13;;;;;;;31.77;45.66;98243.78;2075350;28;20060;-52
2023/08/27 00:30:31;;;;;;;2.55;2.35;;;;;;;31.77;45.34;98247.31;2083244;28;20073;-54
2023/08/27 00:31:33;;;;;;;4.30;2.65;;;;;;;31.76;45.32;98245.72;2074216;28;20049;-53
2023/08/27 00:32:34;;;;;;;2.80;2.60;;;;;;;31.78;45.54;98251.69;2082743;28;20527;-53
2023/08/27 00:33:36;;;;;;;2.42;2.22;;;;;;;31.77;45.68;98246.50;2082327;28;20037;-54
2023/08/27 00:34:37;;;;;;;3.13;2.83;;;;;;;31.77;45.21;98252.00;2083172;28;20668;-55
2023/08/27 00:35:39;;;;;;;2.55;2.35;;;;;;;31.77;45.28;98241.84;2082825;28;20166;-53
2023/08/27 00:36:39;;;;;;;2.60;2.40;;;;;;;31.76;45.33;98242.97;2083365;28;20076;-56
2023/08/27 00:37:43;;;;;;;2.90;2.70;;;;;;;31.77;45.34;98241.03;2073360;28;20543;-54
2023/08/27 00:38:44;;;;;;;2.63;2.42;;;;;;;31.76;45.31;98242.97;2081347;28;20076;-53
2023/08/27 00:39:45;;;;;;;2.38;2.17;;;;;;;31.77;45.77;98232.81;2084346;28;20064;-52
2023/08/27 00:40:47;;;;;;;2.88;2.40;;;;;;;31.76;45.65;98237.47;2083320;28;20059;-53
2023/08/27 00:41:48;;;;;;;2.47;2.28;;;;;;;31.76;45.65;98234.75;2076213;28;20420;-51
2023/08/27 00:42:50;;;;;;;2.75;2.55;;;;;;;31.78;45.26;98231.69;2074440;28;20057;-52
2023/08/27 00:43:50;;;;;;;2.47;2.28;;;;;;;31.76;45.65;98232.00;2083801;28;20052;-53
2023/08/27 00:44:52;;;;;;;2.80;2.60;;;;;;;31.76;45.35;98234.75;2082201;28;20076;-53
2023/08/27 00:45:54;;;;;;;2.58;2.38;;;;;;;31.76;45.35;98231.16;2083401;28;20053;-53
2023/08/27 00:46:56;;;;;;;2.83;2.63;;;;;;;31.76;45.19;98233.91;2082292;28;20500;-51
2023/08/27 00:47:57;;;;;;;2.72;2.53;;;;;;;31.75;45.39;98233.09;2083263;28;20567;-54
2023/08/27 00:48:59;;;;;;;2.78;2.30;;;;;;;31.76;45.52;98232.00;2081048;28;20053;-53
2023/08/27 00:50:01;;;;;;;3.17;2.88;;;;;;;31.76;45.20;98234.75;2081394;28;20876;-54
2023/08/27 00:51:04;;;;;;;2.70;2.50;;;;;;;31.74;45.27;98234.22;2072422;28;20103;-55
2023/08/27 00:52:07;;;;;;;2.60;2.40;;;;;;;31.75;45.94;98238.56;2079999;28;20040;-53
2023/08/27 00:53:11;;;;;;;2.50;2.30;;;;;;;31.75;45.91;98241.31;2077905;28;20050;-54
2023/08/27 00:54:12;;;;;;;2.50;2.30;;;;;;;31.74;45.74;98242.44;2075440;28;20364;-53
2023/08/27 00:55:14;;;;;;;3.78;2.55;;;;;;;31.74;45.67;98242.44;2078138;28;20055;-54
2023/08/27 00:56:15;;;;;;;2.10;2.00;;;;;;;31.75;45.05;98240.50;2084005;28;20052;-50
2023/08/27 00:57:18;;;;;;;2.17;2.08;;;;;;;31.73;45.48;98235.34;2082643;28;20073;-54
2023/08/27 00:58:19;;;;;;;3.13;2.72;;;;;;;31.74;45.83;98230.66;2085508;28;20182;-49
2023/08/27 00:59:21;;;;;;;2.20;2.05;;;;;;;31.73;45.72;98229.84;2080997;28;20053;-53
2023/08/27 01:00:23;;;;;;;4.45;2.35;;;;;;;31.73;45.79;98218.06;2078336;28;20533;-53
2023/08/27 01:01:24;;;;;;;2.65;2.45;;;;;;;31.74;45.51;98227.91;2078566;28;20727;-50
2023/08/27 01:02:26;;;;;;;2.95;2.65;;;;;;;31.73;45.46;98227.13;2083791;28;20411;-50
2023/08/27 01:03:27;;;;;;;3.17;2.88;;;;;;;31.73;45.38;98220.78;2074280;28;20053;-53
2023/08/27 01:04:29;;;;;;;2.38;2.17;;;;;;;31.73;45.49;98229.84;2075326;28;20329;-50
2023/08/27 01:05:29;;;;;;;2.80;2.53;;;;;;;31.72;45.28;98222.72;2072501;28;20081;-53
2023/08/27 01:06:32;;;;;;;2.75;2.55;;;;;;;31.73;45.67;98220.78;2081949;28;20056;-52
2023/08/27 01:07:39;;;;;;;2.78;2.58;;;;;;;31.72;45.21;98219.97;2075687;28;20072;-51
2023/08/27 01:08:52;;;;;;;2.83;2.63;;;;;;;31.72;45.49;98224.66;2080837;28;20487;-52
2023/08/27 01:10:01;;;;;;;2.42;2.22;;;;;;;31.71;45.64;98217.56;2083353;28;20507;-51
2023/08/27 01:11:11;;;;;;;2.40;2.20;;;;;;;31.69;45.38;98217.03;2082467;28;20800;-49
2023/08/27 01:12:19;;;;;;;2.83;2.63;;;;;;;31.69;45.71;98211.56;2078569;28;20115;-54
2023/08/27 01:13:27;;;;;;;2.97;2.78;;;;;;;31.68;45.35;98216.22;2079978;28;20044;-55
2023/08/27 01:14:34;;;;;;;2.83;2.53;;;;;;;31.69;45.47;98211.56;2083137;28;20518;-52
2023/08/27 01:15:37;;;;;;;2.90;2.65;;;;;;;31.69;45.83;98211.56;2082331;28;20069;-53
2023/08/27 01:16:39;;;;;;;2.53;2.33;;;;;;;31.69;45.77;98208.81;2075967;28;20037;-49
2023/08/27 01:17:42;;;;;;;2.80;2.60;;;;;;;31.70;45.07;98207.69;2073305;28;20254;-50
2023/08/27 01:18:44;;;;;;;2.50;2.30;;;;;;;31.69;45.75;98209.63;2081606;28;20060;-55
2023/08/27 01:19:46;;;;;;;2.38;2.17;;;;;;;31.70;45.80;98216.72;2080364;28;20064;-54
2023/08/27 01:20:48;;;;;;;2.67;2.47;;;;;;;31.71;45.66;98209.34;2080076;28;20195;-53
2023/08/27 01:21:50;;;;;;;2.83;2.53;;;;;;;31.71;45.25;98215.63;2081593;28;20143;-49
2023/08/27 01:22:52;;;;;;;2.90;2.67;;;;;;;31.70;45.29;98207.69;2085466;28;20048;-51
2023/08/27 01:23:53;;;;;;;2.90;2.70;;;;;;;31.69;45.58;98212.38;2086249;28;20080;-51
2023/08/27 01:24:55;;;;;;;2.70;2.50;;;;;;;31.70;45.18;98208.50;2084889;28;20041;-51
2023/08/27 01:25:56;;;;;;;2.88;2.63;;;;;;;31.70;45.72;98210.44;2084878;28;20081;-51
2023/08/27 01:27:04;;;;;;;2.58;2.38;;;;;;;31.68;45.31;98205.25;2084578;28;20056;-50
2023/08/27 01:28:11;;;;;;;3.20;2.90;;;;;;;31.68;45.59;98205.25;2083703;28;20143;-54
2023/08/27 01:29:21;;;;;;;2.75;2.55;;;;;;;31.68;45.56;98205.25;2081020;28;20076;-50
2023/08/27 01:30:27;;;;;;;2.80;2.60;;;;;;;31.66;45.42;98201.19;2082618;28;20053;-49
2023/08/27 01:31:34;;;;;;;3.08;2.78;;;;;;;31.67;45.76;98191.84;2083989;28;20037;-49
2023/08/27 01:32:40;;;;;;;2.75;2.55;;;;;;;31.66;45.20;98188.28;2084557;28;20047;-51
2023/08/27 01:33:42;;;;;;;3.00;2.45;;;;;;;31.66;45.11;98182.81;2082867;28;20045;-50
2023/08/27 01:34:45;;;;;;;3.00;2.78;;;;;;;31.68;45.59;98187.97;2083014;28;20045;-59
2023/08/27 01:35:47;;;;;;;2.53;2.33;;;;;;;31.68;45.22;98182.50;2074167;28;20543;-53
2023/08/27 01:36:51;;;;;;;3.95;3.13;;;;;;;31.67;45.35;98186.34;2085383;28;20071;-52
2023/08/27 01:37:51;;;;;;;2.65;2.45;;;;;;;31.66;45.71;98185.56;2081840;28;20053;-50
2023/08/27 01:38:53;;;;;;;2.72;2.53;;;;;;;31.67;45.32;98184.44;2085407;28;20055;-51
2023/08/27 01:39:58;;;;;;;3.22;2.97;;;;;;;31.67;45.58;98178.94;2086120;28;20076;-53
2023/08/27 01:41:00;;;;;;;2.65;2.47;;;;;;;31.67;45.21;98181.69;2082572;28;20045;-50
2023/08/27 01:42:00;;;;;;;2.70;2.50;;;;;;;31.67;45.73;98178.94;2085565;28;20071;-50
2023/08/27 01:43:02;;;;;;;2.42;2.22;;;;;;;31.66;45.46;98180.06;2084382;28;20057;-49
2023/08/27 01:44:03;;;;;;;2.25;2.15;;;;;;;31.67;45.02;98187.16;2085988;28;20055;-49
2023/08/27 01:45:07;;;;;;;2.92;2.70;;;;;;;31.68;45.09;98186.06;2084390;28;20072;-52
2023/08/27 01:46:08;;;;;;;3.13;2.83;;;;;;;31.66;45.25;98185.56;2083405;28;21448;-49
2023/08/27 01:47:10;;;;;;;2.33;2.10;;;;;;;31.65;45.62;98183.94;2083855;28;20057;-50
2023/08/27 01:48:11;;;;;;;3.13;2.70;;;;;;;31.66;45.09;98188.28;2084521;28;20355;-49
2023/08/27 01:49:13;;;;;;;2.75;2.53;;;;;;;31.66;45.34;98190.22;2080937;28;20068;-49
2023/08/27 01:50:13;;;;;;;2.80;2.60;;;;;;;31.66;45.37;98190.22;2077204;28;20156;-50
2023/08/27 01:51:15;;;;;;;3.05;2.75;;;;;;;31.65;45.69;98189.41;2074706;28;20165;-53
2023/08/27 01:52:17;;;;;;;2.90;2.67;;;;;;;31.68;45.35;98194.28;2074568;28;20513;-51
2023/08/27 01:53:19;;;;;;;3.42;2.30;;;;;;;31.65;45.24;98189.41;2076651;28;20128;-50
2023/08/27 01:54:20;;;;;;;3.20;2.63;;;;;;;31.65;45.11;98197.66;2074822;28;20037;-50
2023/08/27 01:55:22;;;;;;;3.70;2.58;;;;;;;31.65;45.46;98200.38;2076504;28;20484;-51
2023/08/27 01:56:23;;;;;;;3.28;2.97;;;;;;;31.66;44.99;98204.75;2076432;28;20084;-52
2023/08/27 01:57:23;;;;;;;2.63;2.42;;;;;;;31.66;45.17;98203.94;2075869;28;20400;-50
2023/08/27 01:58:25;;;;;;;3.13;2.92;;;;;;;31.65;45.25;98205.88;2082813;28;20064;-50
2023/08/27 01:59:26;;;;;;;3.25;2.97;;;;;;;31.65;45.31;98211.34;2081285;28;20049;-54
2023/08/27 02:00:28;;;;;;;2.45;2.25;;;;;;;31.66;45.44;98209.41;2085988;28;20047;-52
2023/08/27 02:01:29;;;;;;;4.47;2.85;;;;;;;31.66;45.04;98207.47;2083786;28;20072;-53
2023/08/27 02:02:31;;;;;;;2.88;2.55;;;;;;;31.65;45.08;98205.03;2082259;28;20363;-51
2023/08/27 02:03:32;;;;;;;2.78;2.58;;;;;;;31.66;45.10;98206.69;2083855;28;20045;-50
2023/08/27 02:04:34;;;;;;;2.50;2.30;;;;;;;31.64;45.52;98197.94;2085209;28;20348;-50
2023/08/27 02:05:34;;;;;;;2.92;2.67;;;;;;;31.64;45.47;98198.75;2083797;28;20456;-51
2023/08/27 02:06:36;;;;;;;2.60;2.40;;;;;;;31.64;44.99;98192.44;2084029;28;20044;-51
2023/08/27 02:07:40;;;;;;;3.67;2.90;;;;;;;31.64;45.05;98196.00;2082773;28;20073;-53
2023/08/27 02:08:41;;;;;;;3.22;2.95;;;;;;;31.63;45.23;98196.31;2082228;28;20525;-50
2023/08/27 02:09:42;;;;;;;2.90;2.70;;;;;;;31.63;45.34;98190.84;2083353;28;20048;-52
2023/08/27 02:10:44;;;;;;;2.58;2.30;;;;;;;31.64;45.45;98195.19;2083923;28;20482;-55
2023/08/27 02:11:45;;;;;;;3.28;2.97;;;;;;;31.62;45.21;98195.47;2084648;28;20124;-50
2023/08/27 02:12:47;;;;;;;4.13;2.72;;;;;;;31.64;45.27;98198.75;2085348;28;20518;-51
2023/08/27 02:13:48;;;;;;;2.53;2.33;;;;;;;31.63;45.20;98188.09;2081795;28;20557;-54
2023/08/27 02:14:49;;;;;;;2.80;2.55;;;;;;;31.63;45.05;98193.56;2084660;28;20091;-51
2023/08/27 02:15:50;;;;;;;2.70;2.45;;;;;;;31.63;45.04;98196.31;2075091;28;20409;-53
2023/08/27 02:16:52;;;;;;;2.63;2.42;;;;;;;31.64;44.94;98197.94;2076801;28;20052;-50
2023/08/27 02:17:53;;;;;;;3.38;3.08;;;;;;;31.64;44.98;98198.75;2075959;28;20049;-54
2023/08/27 02:18:55;;;;;;;2.92;2.72;;;;;;;31.63;44.87;98193.56;2076395;28;20488;-58
2023/08/27 02:19:55;;;;;;;2.15;2.00;;;;;;;31.62;45.38;98195.47;2072993;28;20038;-52
2023/08/27 02:20:57;;;;;;;2.33;2.13;;;;;;;31.63;44.93;98185.34;2075900;28;20092;-53
2023/08/27 02:22:01;;;;;;;2.63;2.42;;;;;;;31.61;44.95;98189.19;2075605;28;20493;-51
2023/08/27 02:23:03;;;;;;;2.58;2.38;;;;;;;31.62;44.80;98195.47;2073699;28;20581;-52
2023/08/27 02:24:05;;;;;;;3.00;2.80;;;;;;;31.61;45.30;98188.38;2076092;28;20049;-51
2023/08/27 02:25:07;;;;;;;2.85;2.65;;;;;;;31.62;44.96;98190.00;2074814;28;20128;-53
2023/08/27 02:26:09;;;;;;;3.08;2.65;;;;;;;31.60;45.09;98182.09;2077119;28;20416;-51
2023/08/27 02:27:10;;;;;;;2.83;2.63;;;;;;;31.61;45.20;98180.97;2075267;28;20060;-51
2023/08/27 02:28:11;;;;;;;2.92;2.67;;;;;;;31.61;44.89;98182.91;2077274;28;20037;-52
2023/08/27 02:29:12;;;;;;;3.00;2.80;;;;;;;31.61;44.94;98180.97;2072518;28;20074;-54
2023/08/27 02:30:15;;;;;;;3.08;2.88;;;;;;;31.61;45.30;98180.16;2075302;28;20038;-51
2023/08/27 02:31:16;;;;;;;3.13;2.70;;;;;;;31.60;45.36;98181.28;2074691;28;20769;-53
2023/08/27 02:32:18;;;;;;;2.63;2.42;;;;;;;31.60;45.31;98175.78;2077565;28;20057;-51
2023/08/27 02:33:19;;;;;;;2.88;2.67;;;;;;;31.59;45.00;98183.22;2074700;28;20881;-53
2023/08/27 02:34:21;;;;;;;2.70;2.50;;;;;;;31.58;44.93;98173.34;2076623;28;20503;-51
2023/08/27 02:35:22;;;;;;;2.55;2.35;;;;;;;31.59;45.25;98180.47;2074728;28;20046;-51
2023/08/27 02:36:23;;;;;;;2.50;2.20;;;;;;;31.59;44.92;98175.00;2077173;28;20037;-52
2023/08/27 02:37:24;;;;;;;2.72;2.08;;;;;;;31.60;45.19;98176.59;2072667;28;20153;-51
2023/08/27 02:38:27;;;;;;;2.60;2.40;;;;;;;31.60;44.92;98184.03;2076733;28;20073;-53
2023/08/27 02:39:28;;;;;;;3.13;2.92;;;;;;;31.59;44.70;98179.63;2073082;28;20076;-52
2023/08/27 02:40:31;;;;;;;2.85;2.58;;;;;;;31.59;45.04;98183.22;2076905;28;20053;-54
2023/08/27 02:41:32;;;;;;;3.15;2.60;;;;;;;31.60;45.34;98181.28;2075296;28;20065;-52
2023/08/27 02:42:34;;;;;;;3.40;2.88;;;;;;;31.61;44.92;98186.44;2077363;28;20136;-54
2023/08/27 02:43:35;;;;;;;3.28;2.97;;;;;;;31.60;44.88;98187.56;2075708;28;20065;-52
2023/08/27 02:44:36;;;;;;;2.63;2.42;;;;;;;31.61;45.06;98188.38;2076921;28;20049;-51
2023/08/27 02:45:37;;;;;;;2.67;2.47;;;;;;;31.60;44.85;98194.97;2074826;28;20492;-51
2023/08/27 02:46:39;;;;;;;3.10;2.90;;;;;;;31.60;45.34;98189.50;2074822;28;20045;-52
2023/08/27 02:47:40;;;;;;;3.15;2.78;;;;;;;31.59;44.83;98185.94;2074607;28;20492;-52
2023/08/27 02:48:42;;;;;;;2.45;2.30;;;;;;;31.59;45.25;98190.59;2077154;28;20041;-54
2023/08/27 02:49:42;;;;;;;2.90;2.67;;;;;;;31.59;44.87;98179.63;2075002;28;20378;-54
2023/08/27 02:50:44;;;;;;;2.78;2.58;;;;;;;31.59;45.18;98188.69;2084208;28;20538;-57
2023/08/27 02:51:45;;;;;;;2.60;2.40;;;;;;;31.60;44.88;98186.75;2074457;28;21327;-51
2023/08/27 02:52:46;;;;;;;3.60;3.30;;;;;;;31.59;44.72;98190.59;2084257;28;21636;-52
2023/08/27 02:53:51;;;;;;;3.40;3.10;;;;;;;31.58;44.91;98192.53;2083749;28;20504;-53
2023/08/27 02:54:52;;;;;;;4.13;2.88;;;;;;;31.57;44.76;98190.91;2082708;28;20040;-53
2023/08/27 02:55:53;;;;;;;3.38;3.08;;;;;;;31.58;45.37;98189.78;2080440;28;20059;-53
2023/08/27 02:56:54;;;;;;;3.42;3.13;;;;;;;31.58;45.30;98188.97;2082751;28;20052;-53
2023/08/27 02:57:56;;;;;;;4.32;2.70;;;;;;;31.56;44.95;98183.78;2082021;28;20407;-52
2023/08/27 02:58:57;;;;;;;3.42;3.13;;;;;;;31.59;45.25;98196.06;2077348;28;20088;-51
2023/08/27 02:59:59;;;;;;;4.80;2.63;;;;;;;31.58;44.80;98197.19;2075486;28;20045;-51
2023/08/27 03:00:59;;;;;;;2.55;2.38;;;;;;;31.57;44.82;98199.13;2076450;28;20053;-53
2023/08/27 03:02:01;;;;;;;3.08;2.80;;;;;;;31.58;45.04;98202.69;2075221;28;20167;-55
2023/08/27 03:03:02;;;;;;;3.17;2.53;;;;;;;31.59;44.70;98204.31;2076722;28;20049;-52
2023/08/27 03:04:04;;;;;;;2.60;2.40;;;;;;;31.58;45.07;98205.44;2072736;28;20173;-53
2023/08/27 03:05:05;;;;;;;2.67;2.47;;;;;;;31.57;44.97;98198.31;2074997;28;20477;-51
2023/08/27 03:06:06;;;;;;;2.95;2.75;;;;;;;31.56;45.25;98199.41;2075182;28;20601;-51
2023/08/27 03:07:08;;;;;;;3.28;2.97;;;;;;;31.58;44.63;98197.19;2075693;28;20049;-52
2023/08/27 03:08:09;;;;;;;2.65;2.45;;;;;;;31.56;44.71;98194.75;2075722;28;20424;-52
2023/08/27 03:09:12;;;;;;;2.85;2.65;;;;;;;31.57;44.76;98195.59;2074644;28;20132;-51
2023/08/27 03:10:14;;;;;;;3.80;2.42;;;;;;;31.56;44.94;98193.94;2074627;28;20140;-52
2023/08/27 03:11:16;;;;;;;2.92;2.70;;;;;;;31.56;44.76;98191.19;2074354;28;20129;-54
2023/08/27 03:12:17;;;;;;;3.08;2.58;;;;;;;31.55;44.87;98184.91;2074874;28;20049;-55
2023/08/27 03:13:18;;;;;;;2.92;2.72;;;;;;;31.56;45.22;98185.72;2076392;28;20409;-51
2023/08/27 03:14:19;;;;;;;2.85;2.65;;;;;;;31.56;45.20;98188.47;2075419;28;20129;-50
2023/08/27 03:15:21;;;;;;;2.88;2.67;;;;;;;31.55;44.94;98182.16;2076178;28;20045;-51
2023/08/27 03:16:22;;;;;;;4.30;3.33;;;;;;;31.54;44.88;98183.28;2076967;28;20522;-52
2023/08/27 03:17:24;;;;;;;3.08;2.80;;;;;;;31.55;44.95;98178.63;2075086;28;20133;-53
2023/08/27 03:18:24;;;;;;;3.13;2.83;;;;;;;31.56;45.16;98180.22;2077319;28;20254;-53
2023/08/27 03:19:26;;;;;;;2.70;2.50;;;;;;;31.55;44.76;98179.44;2078977;28;20121;-51
2023/08/27 03:20:27;;;;;;;2.58;2.38;;;;;;;31.54;44.77;98177.00;2080143;28;20504;-54
2023/08/27 03:21:28;;;;;;;2.50;2.30;;;;;;;31.54;45.32;98182.47;2078989;28;20045;-50
2023/08/27 03:22:30;;;;;;;3.03;2.63;;;;;;;31.54;45.17;98174.25;2079080;28;20049;-54
2023/08/27 03:23:34;;;;;;;2.90;2.70;;;;;;;31.53;45.27;98167.94;2076282;28;20065;-51
2023/08/27 03:24:37;;;;;;;6.15;2.80;;;;;;;31.54;45.05;98172.31;2079086;28;20041;-52
2023/08/27 03:25:38;;;;;;;2.85;2.65;;;;;;;31.53;45.35;98159.72;2079431;28;20037;-52
2023/08/27 03:26:40;;;;;;;2.65;2.45;;;;;;;31.53;45.04;98161.66;2077973;28;20180;-53
2023/08/27 03:27:40;;;;;;;3.22;2.92;;;;;;;31.53;45.45;98165.19;2077765;28;20053;-51
2023/08/27 03:28:42;;;;;;;3.22;2.92;;;;;;;31.54;44.97;98160.56;2079111;28;20522;-52
2023/08/27 03:29:43;;;;;;;3.67;2.63;;;;;;;31.54;45.31;98160.56;2085386;28;20048;-54
2023/08/27 03:30:45;;;;;;;3.05;2.85;;;;;;;31.53;44.86;98159.72;2079540;28;20050;-54
2023/08/27 03:31:46;;;;;;;2.92;2.65;;;;;;;31.52;45.07;98155.34;2076876;28;20104;-50
2023/08/27 03:32:47;;;;;;;3.53;3.22;;;;;;;31.52;45.05;98160.03;2086846;28;20053;-53
2023/08/27 03:33:48;;;;;;;2.90;2.70;;;;;;;31.52;44.85;98160.03;2078423;28;20081;-53
2023/08/27 03:34:49;;;;;;;2.97;2.72;;;;;;;31.53;44.79;98156.16;2079224;28;20075;-50
2023/08/27 03:35:52;;;;;;;3.20;3.00;;;;;;;31.53;45.19;98162.47;2078487;28;20135;-52
2023/08/27 03:36:53;;;;;;;3.50;2.97;;;;;;;31.51;45.04;98151.00;2076107;28;20140;-52
2023/08/27 03:37:55;;;;;;;2.72;2.30;;;;;;;31.52;45.03;98158.09;2076888;28;20049;-51
2023/08/27 03:38:57;;;;;;;2.67;2.25;;;;;;;31.53;45.17;98150.69;2078537;28;20048;-51
2023/08/27 03:40:01;;;;;;;3.00;2.78;;;;;;;31.52;45.00;98141.66;2077988;28;20041;-51
2023/08/27 03:41:02;;;;;;;3.08;2.88;;;;;;;31.51;44.93;98142.78;2073334;28;20049;-51
2023/08/27 03:42:04;;;;;;;2.72;2.53;;;;;;;31.52;44.90;98143.59;2083551;28;20068;-52
2023/08/27 03:43:05;;;;;;;2.72;2.53;;;;;;;31.50;45.00;98134.84;2085484;28;20041;-52
2023/08/27 03:44:07;;;;;;;3.30;3.00;;;;;;;31.51;45.09;98137.31;2085545;28;20128;-53
2023/08/27 03:45:09;;;;;;;2.55;2.35;;;;;;;31.51;45.15;98134.56;2086544;28;20041;-51
2023/08/27 03:46:11;;;;;;;2.75;2.53;;;;;;;31.53;44.91;98142.47;2083720;28;20314;-54
2023/08/27 03:47:12;;;;;;;2.95;2.75;;;;;;;31.53;44.87;98136.97;2088246;28;20048;-50
2023/08/27 03:48:14;;;;;;;3.33;3.03;;;;;;;31.52;45.22;98138.09;2086873;28;20051;-53
2023/08/27 03:49:15;;;;;;;2.70;2.50;;;;;;;31.52;45.05;98144.41;2083546;28;20239;-53
2023/08/27 03:50:16;;;;;;;2.80;2.60;;;;;;;31.50;45.06;98145.81;2087995;28;20044;-54
2023/08/27 03:51:17;;;;;;;2.83;2.63;;;;;;;31.52;44.64;98141.66;2086138;28;20522;-57
2023/08/27 03:52:18;;;;;;;4.80;3.45;;;;;;;31.51;44.63;98139.19;2083014;28;20042;-54
2023/08/27 03:53:20;;;;;;;3.00;2.80;;;;;;;31.51;45.06;98140.03;2079580;28;20447;-52
2023/08/27 03:54:21;;;;;;;2.97;2.50;;;;;;;31.50;45.04;98143.88;2077977;28;20084;-52
2023/08/27 03:55:25;;;;;;;2.90;2.70;;;;;;;31.50;44.87;98143.88;2078630;28;20412;-51
2023/08/27 03:56:26;;;;;;;2.78;2.58;;;;;;;31.51;44.80;98147.44;2077595;28;20060;-50
2023/08/27 03:57:28;;;;;;;2.50;2.30;;;;;;;31.52;45.06;98144.41;2078662;28;20049;-52
2023/08/27 03:58:29;;;;;;;2.70;2.50;;;;;;;31.52;45.13;98143.59;2076693;28;20050;-53
2023/08/27 03:59:31;;;;;;;2.40;2.20;;;;;;;31.52;45.19;98149.06;2076564;28;20113;-53
2023/08/27 04:00:33;;;;;;;3.03;2.63;;;;;;;31.52;45.34;98146.34;2076694;28;21920;-51
2023/08/27 04:01:35;;;;;;;3.20;3.00;;;;;;;31.51;44.77;98140.03;2076711;28;20080;-53
2023/08/27 04:02:36;;;;;;;2.67;2.47;;;;;;;31.50;44.88;98148.56;2079629;28;20045;-51
2023/08/27 04:03:38;;;;;;;3.50;3.25;;;;;;;31.50;45.07;98154.03;2077660;28;20246;-51
2023/08/27 04:04:39;;;;;;;2.80;2.60;;;;;;;31.50;45.40;98157.59;2077921;28;20041;-50
2023/08/27 04:05:41;;;;;;;2.70;2.50;;;;;;;31.53;44.76;98153.44;2077858;28;20499;-53
2023/08/27 04:06:42;;;;;;;3.17;2.97;;;;;;;31.51;44.71;98153.75;2078507;28;20738;-54
2023/08/27 04:07:42;;;;;;;2.90;2.42;;;;;;;31.49;45.19;98150.47;2077833;28;20042;-53
2023/08/27 04:08:44;;;;;;;3.22;2.92;;;;;;;31.50;45.29;98143.06;2076831;28;20522;-58
2023/08/27 04:09:45;;;;;;;2.65;2.45;;;;;;;31.49;44.94;98147.75;2077819;28;20056;-54
2023/08/27 04:10:52;;;;;;;2.70;2.50;;;;;;;31.49;45.28;98150.47;2078308;28;20049;-53
2023/08/27 04:11:53;;;;;;;3.55;3.25;;;;;;;31.49;45.01;98147.75;2077668;28;20080;-53
2023/08/27 04:12:54;;;;;;;2.90;2.70;;;;;;;31.48;44.85;98146.13;2078241;28;20041;-53
2023/08/27 04:13:56;;;;;;;3.22;2.92;;;;;;;31.48;45.36;98151.59;2076494;28;20053;-52
2023/08/27 04:14:57;;;;;;;3.10;2.90;;;;;;;31.49;45.04;98146.94;2075055;28;20493;-53
2023/08/27 04:16:00;;;;;;;3.20;2.90;;;;;;;31.49;44.75;98146.94;2074845;28;20494;-54
2023/08/27 04:17:01;;;;;;;2.95;2.75;;;;;;;31.49;45.03;98146.94;2076438;28;20140;-52
2023/08/27 04:18:03;;;;;;;3.45;3.15;;;;;;;31.49;45.21;98141.47;2074569;28;20416;-54
2023/08/27 04:19:04;;;;;;;3.25;2.95;;;;;;;31.47;44.80;98138.19;2077858;28;20077;-54
2023/08/27 04:20:08;;;;;;;2.97;2.78;;;;;;;31.48;45.02;98146.13;2078276;28;20049;-50
2023/08/27 04:21:09;;;;;;;2.83;2.60;;;;;;;31.48;45.34;98146.13;2079884;28;20056;-50
2023/08/27 04:22:11;;;;;;;3.20;2.90;;;;;;;31.48;45.06;98142.53;2078405;28;20051;-51
2023/08/27 04:23:12;;;;;;;3.33;3.03;;;;;;;31.48;44.74;98139.81;2079054;28;20068;-51
2023/08/27 04:24:14;;;;;;;3.03;2.83;;;;;;;31.46;44.83;98145.59;2077681;28;20049;-53
2023/08/27 04:25:15;;;;;;;3.58;2.20;;;;;;;31.47;45.00;98138.19;2079522;28;20084;-53
2023/08/27 04:26:19;;;;;;;3.42;3.08;;;;;;;31.47;44.68;98146.41;2078504;28;20057;-53
2023/08/27 04:27:20;;;;;;;3.80;3.25;;;;;;;31.46;45.24;98140.13;2080210;28;20056;-53
2023/08/27 04:28:22;;;;;;;2.92;2.72;;;;;;;31.45;45.54;98134.94;2077596;28;20045;-52
2023/08/27 04:29:23;;;;;;;3.15;2.90;;;;;;;31.45;45.23;98145.91;2078004;28;20101;-53
2023/08/27 04:30:25;;;;;;;2.58;2.38;;;;;;;31.46;44.96;98139.31;2075576;28;20045;-50
2023/08/27 04:31:26;;;;;;;2.50;2.30;;;;;;;31.47;44.97;98146.41;2075450;28;20072;-54
2023/08/27 04:32:28;;;;;;;4.97;3.35;;;;;;;31.48;44.81;98150.78;2078799;28;20053;-50
2023/08/27 04:33:29;;;;;;;3.38;3.08;;;;;;;31.47;44.88;98143.66;2074594;28;20416;-52
2023/08/27 04:34:31;;;;;;;4.93;3.50;;;;;;;31.46;44.95;98144.78;2079641;28;20048;-52
2023/08/27 04:35:31;;;;;;;2.67;2.47;;;;;;;31.46;45.18;98144.78;2079121;28;20045;-51
2023/08/27 04:36:33;;;;;;;2.65;2.45;;;;;;;31.46;45.01;98136.56;2079488;28;20059;-49
2023/08/27 04:37:34;;;;;;;2.63;2.42;;;;;;;31.46;44.88;98147.53;2079037;28;20052;-49
2023/08/27 04:38:35;;;;;;;3.28;2.97;;;;;;;31.44;44.95;98138.78;2078325;28;20117;-52
2023/08/27 04:39:36;;;;;;;2.83;2.55;;;;;;;31.45;44.94;98145.91;2078067;28;20057;-52
2023/08/27 04:40:37;;;;;;;3.70;3.40;;;;;;;31.44;45.11;98147.81;2078833;28;20049;-52
2023/08/27 04:41:40;;;;;;;2.58;2.38;;;;;;;31.44;44.89;98145.09;2079400;28;20533;-50
2023/08/27 04:42:42;;;;;;;3.50;3.20;;;;;;;31.45;44.94;98137.66;2076773;28;20099;-53
2023/08/27 04:43:43;;;;;;;3.00;2.75;;;;;;;31.44;44.71;98139.59;2079150;28;20536;-51
2023/08/27 04:44:44;;;;;;;2.72;2.53;;;;;;;31.45;45.33;98141.22;2077797;28;20148;-50
2023/08/27 04:45:46;;;;;;;3.25;2.95;;;;;;;31.43;45.32;98128.97;2076784;28;21396;-52
2023/08/27 04:46:48;;;;;;;3.60;3.30;;;;;;;31.43;44.90;98137.19;2076918;28;20060;-51
2023/08/27 04:47:50;;;;;;;2.95;2.75;;;;;;;31.43;45.34;98137.19;2075121;28;20512;-53
2023/08/27 04:48:50;;;;;;;2.90;2.70;;;;;;;31.43;45.21;98139.91;2078054;28;20539;-50
2023/08/27 04:49:52;;;;;;;3.58;3.28;;;;;;;31.42;45.14;98141.00;2076922;28;20079;-54
2023/08/27 04:50:53;;;;;;;2.67;2.47;;;;;;;31.42;45.61;98143.75;2078798;28;20034;-53
2023/08/27 04:51:55;;;;;;;3.38;3.17;;;;;;;31.40;45.35;98138.59;2075827;28;20042;-53